Time;durP1;ratioP1;P1;durP2;ratioP2;P2;SDS_P1;SDS_P2;PMS_P1;PMS_P2;Temp;Humidity;BMP_temperature;BMP_pressure;BME280_temperature;BME280_humidity;BME280_pressure;Samples;Min_cycle;Max_cycle;Signal;HPM_P1;HPM_P2
2022/05/02 00:01:13;;;;;;;6.22;1.40;;;18.80;99.90;;;;;;5024084;28;20277;-81
2022/05/02 00:03:44;;;;;;;3.70;1.35;;;19.00;99.90;;;;;;5016390;28;20207;-86
2022/05/02 00:06:17;;;;;;;4.88;1.17;;;19.00;99.90;;;;;;5018446;28;20196;-76
2022/05/02 00:08:47;;;;;;;6.63;1.30;;;19.10;99.90;;;;;;5018101;28;20214;-82
2022/05/02 00:11:18;;;;;;;7.03;1.20;;;19.20;99.90;;;;;;5017472;28;20186;-78
2022/05/02 00:13:49;;;;;;;5.65;1.20;;;19.30;99.90;;;;;;5020775;28;20195;-78
2022/05/02 00:16:19;;;;;;;4.28;1.02;;;19.40;99.90;;;;;;5021308;28;20182;-79
2022/05/02 00:18:50;;;;;;;5.55;1.30;;;19.50;99.90;;;;;;5017160;28;20201;-77
2022/05/02 00:21:22;;;;;;;4.85;1.13;;;19.60;99.90;;;;;;5012107;28;20211;-81
2022/05/02 00:23:53;;;;;;;5.60;1.23;;;19.70;99.90;;;;;;5014933;28;20661;-79
2022/05/02 00:26:24;;;;;;;2.63;0.80;;;19.70;99.90;;;;;;5023121;28;20187;-83
2022/05/02 00:28:54;;;;;;;9.63;1.30;;;19.90;99.90;;;;;;5014941;28;20214;-82
2022/05/02 00:31:25;;;;;;;4.85;1.27;;;20.00;99.90;;;;;;5020205;28;20190;-82
2022/05/02 00:33:56;;;;;;;5.70;1.02;;;20.00;99.90;;;;;;5014465;28;20195;-81
2022/05/02 00:36:28;;;;;;;2.33;0.90;;;20.10;99.90;;;;;;5015092;28;20241;-83
2022/05/02 00:38:59;;;;;;;2.80;1.10;;;20.30;99.90;;;;;;5023053;28;20618;-82
2022/05/02 00:41:31;;;;;;;4.80;1.20;;;20.30;99.90;;;;;;5021923;28;20191;-82
2022/05/02 00:44:02;;;;;;;3.55;1.13;;;20.40;99.90;;;;;;5017876;28;20191;-83
2022/05/02 00:46:33;;;;;;;5.85;1.17;;;20.40;99.90;;;;;;5021005;28;20657;-80
2022/05/02 00:49:03;;;;;;;6.97;1.40;;;20.40;99.90;;;;;;5021826;28;20226;-77
2022/05/02 00:51:36;;;;;;;4.38;1.38;;;20.40;99.90;;;;;;5023216;28;20225;-82
2022/05/02 00:54:07;;;;;;;6.75;1.65;;;20.50;99.90;;;;;;5017161;28;20252;-82
2022/05/02 00:56:38;;;;;;;3.38;1.15;;;20.50;99.90;;;;;;5022935;28;20183;-80
2022/05/02 00:59:11;;;;;;;7.25;1.20;;;20.70;99.90;;;;;;5022866;28;20559;-84
2022/05/02 01:01:42;;;;;;;5.10;1.13;;;20.70;99.90;;;;;;5021418;28;20190;-84
2022/05/02 01:04:12;;;;;;;4.38;1.10;;;20.70;99.90;;;;;;5020272;28;20205;-80
2022/05/02 01:09:32;;;;;;;7.07;1.30;;;20.90;99.90;;;;;;5011476;28;20265;-81
2022/05/02 01:12:03;;;;;;;7.13;1.38;;;21.00;99.90;;;;;;5010326;28;20210;-84
2022/05/02 01:14:36;;;;;;;5.95;1.27;;;21.00;99.90;;;;;;5015913;28;20199;-86
2022/05/02 01:17:08;;;;;;;9.10;1.13;;;21.10;99.90;;;;;;5015977;28;20245;-80
2022/05/02 01:19:39;;;;;;;7.60;1.30;;;21.20;99.90;;;;;;5019017;28;20755;-81
2022/05/02 01:22:12;;;;;;;5.55;1.30;;;21.20;99.90;;;;;;5015691;28;20182;-83
2022/05/02 01:24:44;;;;;;;3.92;0.85;;;21.30;99.90;;;;;;5010716;28;20243;-82
2022/05/02 01:27:15;;;;;;;6.57;1.30;;;21.40;99.90;;;;;;4996349;28;20667;-83
2022/05/02 01:29:47;;;;;;;4.25;0.90;;;21.60;99.90;;;;;;5002244;28;20212;-84
2022/05/02 01:32:19;;;;;;;5.28;1.08;;;21.60;99.90;;;;;;5009252;28;20226;-82
2022/05/02 01:34:50;;;;;;;4.43;1.27;;;21.70;99.90;;;;;;5012975;28;20194;-84
2022/05/02 01:37:22;;;;;;;7.05;1.15;;;21.80;99.90;;;;;;5012833;28;20187;-83
2022/05/02 01:39:53;;;;;;;5.03;1.20;;;21.80;99.90;;;;;;5013149;28;20246;-84
2022/05/02 01:42:24;;;;;;;5.57;1.27;;;21.90;99.90;;;;;;5011699;28;20249;-82
2022/05/02 01:44:54;;;;;;;5.75;1.35;;;22.00;99.90;;;;;;5009330;28;20654;-87
2022/05/02 01:47:25;;;;;;;6.53;1.65;;;22.00;99.90;;;;;;5008919;28;20206;-86
2022/05/02 01:49:55;;;;;;;7.25;1.50;;;22.00;99.90;;;;;;4998300;28;20238;-84
2022/05/02 01:52:28;;;;;;;3.35;1.30;;;22.00;99.90;;;;;;5015725;28;20234;-84
2022/05/02 01:54:59;;;;;;;5.40;1.40;;;21.90;99.90;;;;;;5027237;28;20202;-83
2022/05/02 01:57:29;;;;;;;6.05;1.50;;;21.90;99.90;;;;;;5020175;28;20257;-84
2022/05/02 02:00:00;;;;;;;4.45;1.50;;;21.90;99.90;;;;;;5016582;28;20639;-86
2022/05/02 02:02:30;;;;;;;3.97;1.42;;;21.90;99.90;;;;;;5005668;28;20202;-84
2022/05/02 02:07:46;;;;;;;6.07;1.40;;;22.00;99.90;;;;;;4977207;28;20206;-84
2022/05/02 02:10:17;;;;;;;4.97;1.20;;;22.00;99.90;;;;;;5019068;28;20758;-77
2022/05/02 02:12:47;;;;;;;4.97;1.40;;;22.10;99.90;;;;;;5015235;28;20194;-80
2022/05/02 02:15:18;;;;;;;5.93;1.48;;;22.10;99.90;;;;;;5016155;28;20194;-84
2022/05/02 02:17:48;;;;;;;4.32;1.35;;;22.20;99.90;;;;;;5013000;28;20273;-87
2022/05/02 02:20:19;;;;;;;5.97;1.30;;;22.00;99.90;;;;;;5013273;28;20203;-85
2022/05/02 02:22:52;;;;;;;5.72;1.30;;;22.00;99.90;;;;;;5015286;28;20218;-84
2022/05/02 02:25:22;;;;;;;4.80;1.40;;;21.90;99.90;;;;;;5019763;28;20203;-81
2022/05/02 02:27:53;;;;;;;3.83;1.30;;;21.80;99.90;;;;;;5016752;28;20195;-85
2022/05/02 02:30:24;;;;;;;5.75;1.55;;;21.60;99.90;;;;;;5014613;28;20622;-84
2022/05/02 02:32:55;;;;;;;3.90;1.40;;;21.50;99.90;;;;;;5015502;28;20209;-79
2022/05/02 02:35:26;;;;;;;4.43;1.13;;;21.30;99.90;;;;;;5015580;28;20202;-84
2022/05/02 02:37:58;;;;;;;6.88;1.80;;;21.10;99.90;;;;;;5011706;28;20210;-85
2022/05/02 02:40:29;;;;;;;3.58;1.33;;;21.00;99.90;;;;;;5013787;28;20195;-76
2022/05/02 02:43:00;;;;;;;5.13;1.40;;;20.90;99.90;;;;;;5015675;28;20207;-79
2022/05/02 02:45:30;;;;;;;28.38;7.30;;;20.80;99.90;;;;;;5017993;28;20195;-80
2022/05/02 02:48:01;;;;;;;6.15;1.92;;;20.80;99.90;;;;;;5013972;28;20650;-80
2022/05/02 02:50:32;;;;;;;4.93;1.55;;;20.80;99.90;;;;;;5014958;28;20230;-80
2022/05/02 02:53:04;;;;;;;7.45;1.83;;;20.80;99.90;;;;;;5016819;28;20240;-78
2022/05/02 02:55:35;;;;;;;7.55;2.03;;;21.00;99.90;;;;;;5021147;28;20202;-79
2022/05/02 02:58:06;;;;;;;7.75;1.58;;;21.20;99.90;;;;;;5016153;28;20721;-78
2022/05/02 03:00:37;;;;;;;5.78;1.40;;;21.40;99.90;;;;;;5015760;28;20199;-81
2022/05/02 03:03:08;;;;;;;4.95;1.50;;;21.50;99.90;;;;;;5005175;28;20206;-77
2022/05/02 03:08:27;;;;;;;5.70;1.48;;;21.80;99.90;;;;;;5007696;28;20548;-82
2022/05/02 03:10:57;;;;;;;3.78;1.30;;;22.00;99.90;;;;;;5010832;28;21367;-82
2022/05/02 03:13:28;;;;;;;4.50;1.40;;;22.10;99.90;;;;;;5005441;28;20563;-83
2022/05/02 03:15:59;;;;;;;4.65;1.60;;;22.10;99.90;;;;;;5018795;28;20211;-82
2022/05/02 03:18:31;;;;;;;4.80;1.42;;;22.00;99.90;;;;;;5012117;28;20206;-80
2022/05/02 03:21:01;;;;;;;5.30;1.20;;;22.00;99.90;;;;;;5013469;28;20213;-82
2022/05/02 03:23:34;;;;;;;5.28;1.30;;;22.00;99.90;;;;;;5006707;28;20204;-82
2022/05/02 03:26:04;;;;;;;5.38;1.65;;;22.00;99.90;;;;;;5000415;28;20238;-82
2022/05/02 03:28:35;;;;;;;4.95;1.58;;;22.00;99.90;;;;;;5016952;28;20198;-82
2022/05/02 03:31:06;;;;;;;6.70;1.50;;;22.00;99.90;;;;;;5009847;28;20199;-84
2022/05/02 03:33:36;;;;;;;9.20;3.90;;;22.00;99.90;;;;;;5003267;28;20206;-84
2022/05/02 03:36:08;;;;;;;11.82;6.18;;;22.00;99.90;;;;;;5012974;28;20199;-84
2022/05/02 03:38:40;;;;;;;7.20;3.78;;;22.00;99.90;;;;;;5018163;28;20209;-85
2022/05/02 03:41:11;;;;;;;8.25;4.30;;;22.10;99.90;;;;;;5022921;28;20208;-89
2022/05/02 03:43:42;;;;;;;5.13;1.67;;;22.20;99.90;;;;;;4996508;28;20203;-80
2022/05/02 03:46:13;;;;;;;3.92;1.40;;;22.10;99.90;;;;;;5029761;28;20216;-83
2022/05/02 03:48:44;;;;;;;3.08;1.10;;;22.00;99.90;;;;;;5011228;28;20211;-85
2022/05/02 03:51:15;;;;;;;2.97;1.08;;;21.90;99.90;;;;;;5017003;28;20591;-79
2022/05/02 03:53:47;;;;;;;2.92;1.08;;;21.80;99.90;;;;;;5023717;28;20194;-80
2022/05/02 03:56:18;;;;;;;4.90;1.75;;;21.80;99.90;;;;;;5026485;28;20203;-77
2022/05/02 03:58:48;;;;;;;4.15;1.50;;;21.70;99.90;;;;;;5020803;28;20196;-81
2022/05/02 04:01:19;;;;;;;3.08;1.30;;;21.60;99.90;;;;;;5001632;28;20202;-85
2022/05/02 04:03:50;;;;;;;4.05;1.40;;;21.60;99.90;;;;;;5020340;28;20202;-77
2022/05/02 04:06:21;;;;;;;7.88;1.45;;;21.50;99.90;;;;;;4998857;28;20192;-76
2022/05/02 04:08:54;;;;;;;4.68;1.30;;;21.40;99.90;;;;;;5001827;28;20230;-84
2022/05/02 04:11:24;;;;;;;4.85;1.30;;;21.40;99.90;;;;;;5011901;28;20214;-79
2022/05/02 04:13:55;;;;;;;5.03;1.17;;;21.30;99.90;;;;;;5007713;28;20261;-79
2022/05/02 04:16:25;;;;;;;5.65;1.20;;;21.40;99.90;;;;;;5005048;28;20534;-77
2022/05/02 04:18:56;;;;;;;2.38;0.90;;;21.30;99.90;;;;;;5015931;28;20733;-80
2022/05/02 04:21:27;;;;;;;3.05;1.20;;;21.30;99.90;;;;;;5005055;28;20191;-78
2022/05/02 04:23:59;;;;;;;5.00;1.52;;;21.30;99.90;;;;;;5011510;28;20238;-82
2022/05/02 04:26:30;;;;;;;6.43;1.30;;;21.20;99.90;;;;;;5015068;28;20617;-83
2022/05/02 04:29:01;;;;;;;5.57;1.13;;;21.20;99.90;;;;;;5008741;28;20216;-82
2022/05/02 04:31:31;;;;;;;5.25;1.38;;;21.20;99.90;;;;;;5006127;28;20195;-81
2022/05/02 04:34:02;;;;;;;4.55;1.10;;;21.10;99.90;;;;;;5015816;28;20242;-80
2022/05/02 04:36:33;;;;;;;5.43;1.13;;;21.10;99.90;;;;;;5017597;28;20191;-76
2022/05/02 04:39:05;;;;;;;3.45;1.40;;;21.10;99.90;;;;;;5015069;28;20203;-85
2022/05/02 04:41:36;;;;;;;6.82;1.48;;;21.10;99.90;;;;;;5010330;28;20203;-84
2022/05/02 04:44:06;;;;;;;5.57;1.00;;;21.10;99.90;;;;;;5015793;28;20198;-85
2022/05/02 04:46:37;;;;;;;3.92;0.90;;;21.10;99.90;;;;;;5004515;28;20210;-82
2022/05/02 04:49:08;;;;;;;3.70;0.80;;;21.10;99.90;;;;;;5006369;28;20218;-81
2022/05/02 04:51:38;;;;;;;2.63;0.70;;;21.10;99.90;;;;;;5015249;28;20239;-77
2022/05/02 04:54:11;;;;;;;2.60;0.73;;;21.20;99.90;;;;;;5011795;28;20569;-80
2022/05/02 04:56:42;;;;;;;2.75;0.70;;;21.20;99.90;;;;;;5013838;28;20279;-85
2022/05/02 04:59:12;;;;;;;3.00;0.80;;;21.30;99.90;;;;;;5010864;28;20214;-83
2022/05/02 05:01:43;;;;;;;2.80;0.80;;;21.40;99.90;;;;;;5013170;28;20819;-82
2022/05/02 05:04:14;;;;;;;3.05;0.73;;;21.60;99.90;;;;;;5016512;28;20209;-84
2022/05/02 05:06:45;;;;;;;5.07;0.95;;;21.60;99.90;;;;;;5010679;28;20241;-80
2022/05/02 05:09:17;;;;;;;2.30;0.70;;;21.60;99.90;;;;;;5007433;28;20222;-82
2022/05/02 05:12:02;;;;;;;4.45;0.75;;;21.60;99.90;;;;;;5015953;28;20685;-78
2022/05/02 05:17:43;;;;;;;5.10;1.00;;;21.60;99.90;;;;;;5011861;28;20198;-83
2022/05/02 05:20:22;;;;;;;3.40;0.80;;;21.60;99.90;;;;;;5003102;28;20717;-82
2022/05/02 05:23:18;;;;;;;5.10;1.00;;;21.50;99.90;;;;;;5013101;28;20585;-76
2022/05/02 05:26:09;;;;;;;5.15;0.90;;;21.50;99.90;;;;;;5005934;28;20229;-78
2022/05/02 05:28:54;;;;;;;5.85;0.95;;;21.50;99.90;;;;;;5012727;28;20233;-79
2022/05/02 05:31:34;;;;;;;4.47;0.85;;;21.40;99.90;;;;;;5008510;28;20208;-79
2022/05/02 05:34:10;;;;;;;3.95;0.90;;;21.30;99.90;;;;;;5012846;28;20230;-80
2022/05/02 05:37:00;;;;;;;5.97;1.00;;;21.30;99.90;;;;;;5013210;28;20657;-77
2022/05/02 05:39:38;;;;;;;5.22;0.90;;;21.30;99.90;;;;;;5012691;28;20199;-85
2022/05/02 05:42:34;;;;;;;6.85;0.90;;;21.30;99.90;;;;;;5012889;28;20191;-83
2022/05/02 05:45:07;;;;;;;4.28;1.35;;;21.20;99.90;;;;;;5007457;28;20230;-87
2022/05/02 05:47:55;;;;;;;3.45;0.98;;;21.30;99.90;;;;;;5009862;28;20191;-86
2022/05/02 05:50:26;;;;;;;5.50;0.93;;;21.30;99.90;;;;;;5015721;28;20308;-85
2022/05/02 05:53:09;;;;;;;6.07;1.17;;;21.30;99.90;;;;;;5011708;28;20300;-86
2022/05/02 05:56:12;;;;;;;5.72;0.93;;;21.30;99.90;;;;;;5013093;28;20199;-86
2022/05/02 05:58:56;;;;;;;5.25;1.15;;;21.20;99.90;;;;;;5012890;28;20190;-87
2022/05/02 06:01:32;;;;;;;2.50;0.75;;;21.20;99.90;;;;;;5013083;28;20282;-84
2022/05/02 06:04:07;;;;;;;3.38;1.00;;;21.20;99.90;;;;;;5009037;28;20191;-84
2022/05/02 06:06:39;;;;;;;1.95;0.90;;;21.10;99.90;;;;;;5012444;28;20541;-76
2022/05/02 06:09:12;;;;;;;5.70;1.05;;;21.10;99.90;;;;;;5012719;28;20638;-77
2022/05/02 06:11:46;;;;;;;8.35;1.15;;;21.10;99.90;;;;;;5012563;28;20708;-78
2022/05/02 06:14:23;;;;;;;5.28;1.05;;;21.00;99.90;;;;;;5012794;28;20321;-87
2022/05/02 06:19:45;;;;;;;6.20;1.33;;;21.00;99.90;;;;;;5005082;28;20319;-84
2022/05/02 06:22:18;;;;;;;4.30;1.20;;;21.00;99.90;;;;;;5007987;28;20202;-81
2022/05/02 06:24:51;;;;;;;5.15;1.10;;;21.00;99.90;;;;;;5014141;28;20270;-77
2022/05/02 06:27:22;;;;;;;4.05;1.00;;;20.90;99.90;;;;;;5014242;28;20191;-79
2022/05/02 06:29:55;;;;;;;3.17;1.20;;;20.90;99.90;;;;;;5015593;28;20569;-87
2022/05/02 06:32:26;;;;;;;3.42;1.13;;;20.90;99.90;;;;;;5004333;28;20196;-83
2022/05/02 06:34:56;;;;;;;5.25;1.08;;;20.80;99.90;;;;;;5008118;28;20207;-76
2022/05/02 06:37:37;;;;;;;4.50;1.23;;;20.70;99.90;;;;;;5017339;28;20184;-81
2022/05/02 06:40:17;;;;;;;5.13;1.55;;;20.70;99.90;;;;;;5026057;28;20197;-78
2022/05/02 06:42:59;;;;;;;4.35;1.30;;;20.70;99.90;;;;;;5010348;28;20200;-85
2022/05/02 06:45:46;;;;;;;4.68;1.40;;;20.70;99.90;;;;;;5014980;28;20195;-79
2022/05/02 06:48:37;;;;;;;6.18;1.48;;;20.60;99.90;;;;;;5011223;28;20206;-77
2022/05/02 06:51:08;;;;;;;4.35;1.40;;;20.50;99.90;;;;;;5021555;28;20232;-76
2022/05/02 06:54:05;;;;;;;4.18;1.42;;;20.50;99.90;;;;;;5025502;28;20183;-82
2022/05/02 06:56:45;;;;;;;7.40;1.95;;;20.40;99.90;;;;;;5017516;28;20195;-76
2022/05/02 06:59:33;;;;;;;3.33;1.30;;;20.30;99.90;;;;;;5021989;28;20195;-76
2022/05/02 07:02:26;;;;;;;3.28;1.10;;;20.30;99.90;;;;;;5023816;28;20257;-77
2022/05/02 07:04:57;;;;;;;1.83;0.90;;;20.20;99.90;;;;;;5021061;28;20269;-77
2022/05/02 07:07:59;;;;;;;5.38;1.20;;;20.10;99.90;;;;;;5020138;28;20183;-76
2022/05/02 07:10:35;;;;;;;2.78;1.10;;;20.00;99.90;;;;;;5023401;28;20210;-76
2022/05/02 07:13:29;;;;;;;4.35;1.20;;;20.00;99.90;;;;;;5019049;28;20233;-76
2022/05/02 07:16:06;;;;;;;4.93;0.93;;;19.90;99.90;;;;;;5022857;28;20723;-78
2022/05/02 07:18:51;;;;;;;3.85;1.00;;;19.90;99.90;;;;;;5020789;28;20198;-76
2022/05/02 07:21:34;;;;;;;6.50;1.38;;;19.80;99.90;;;;;;5017162;28;20190;-76
2022/05/02 07:24:18;;;;;;;3.20;1.00;;;19.80;99.90;;;;;;5023325;28;20244;-75
2022/05/02 07:27:03;;;;;;;4.43;1.15;;;19.70;99.90;;;;;;5021755;28;20274;-76
2022/05/02 07:29:35;;;;;;;2.95;1.13;;;19.70;99.90;;;;;;5023120;28;20186;-76
2022/05/02 07:32:08;;;;;;;4.65;1.23;;;19.60;99.90;;;;;;5016039;28;20195;-76
2022/05/02 07:34:43;;;;;;;5.28;1.45;;;19.50;99.90;;;;;;5022992;28;20191;-76
2022/05/02 07:37:17;;;;;;;5.70;1.48;;;19.50;99.90;;;;;;5019824;28;20189;-75
2022/05/02 07:39:50;;;;;;;4.13;1.15;;;19.40;99.90;;;;;;5023836;28;20182;-75
2022/05/02 07:42:22;;;;;;;4.65;1.20;;;19.40;99.90;;;;;;5016127;28;20273;-76
2022/05/02 07:44:56;;;;;;;7.80;1.40;;;19.30;99.90;;;;;;5016558;28;20252;-78
2022/05/02 07:47:29;;;;;;;6.28;1.25;;;19.20;99.90;;;;;;5015704;28;20542;-81
2022/05/02 07:50:02;;;;;;;3.58;1.60;;;19.20;99.90;;;;;;5015226;28;20233;-77
2022/05/02 07:52:35;;;;;;;3.28;1.30;;;19.20;99.90;;;;;;5015618;28;20238;-79
2022/05/02 07:55:09;;;;;;;4.85;1.00;;;19.10;99.90;;;;;;5017094;28;20237;-76
2022/05/02 07:57:43;;;;;;;3.40;1.08;;;19.10;99.90;;;;;;5010777;28;20663;-83
2022/05/02 08:00:16;;;;;;;3.75;1.00;;;19.10;99.90;;;;;;5017227;28;20218;-82
2022/05/02 08:02:48;;;;;;;4.00;1.00;;;19.10;99.90;;;;;;5019152;28;20193;-80
2022/05/02 08:05:24;;;;;;;7.38;1.30;;;19.10;99.90;;;;;;5018118;28;20202;-81
2022/05/02 08:07:57;;;;;;;5.63;1.60;;;19.00;99.90;;;;;;5022607;28;20237;-80
2022/05/02 08:10:55;;;;;;;5.82;1.42;;;19.00;99.90;;;;;;5016695;28;20787;-81
2022/05/02 08:13:39;;;;;;;5.13;1.50;;;19.00;99.90;;;;;;5011090;28;20201;-85
2022/05/02 08:16:21;;;;;;;4.13;1.25;;;18.90;99.90;;;;;;5019647;28;20625;-79
2022/05/02 08:19:14;;;;;;;2.60;1.15;;;18.90;99.90;;;;;;5018234;28;20242;-79
2022/05/02 08:21:52;;;;;;;5.25;1.23;;;18.90;99.90;;;;;;5012191;28;20209;-85
2022/05/02 08:27:40;;;;;;;4.95;1.25;;;18.80;99.90;;;;;;5009273;28;20247;-83
2022/05/02 08:30:12;;;;;;;5.15;1.10;;;18.80;99.90;;;;;;5015363;28;20277;-85
2022/05/02 08:32:53;;;;;;;4.63;1.00;;;18.70;99.90;;;;;;5013528;28;20194;-79
2022/05/02 08:35:53;;;;;;;2.05;1.10;;;18.70;99.90;;;;;;5014600;28;20187;-86
2022/05/02 08:38:48;;;;;;;2.78;0.90;;;18.70;99.90;;;;;;5017463;28;20199;-85
2022/05/02 08:41:58;;;;;;;3.17;0.82;;;18.60;99.90;;;;;;5022405;28;20199;-85
2022/05/02 08:45:01;;;;;;;6.07;1.30;;;18.60;99.90;;;;;;5013278;28;20204;-84
2022/05/02 08:47:55;;;;;;;6.30;2.35;;;18.60;99.90;;;;;;5012783;28;20210;-86
2022/05/02 08:50:31;;;;;;;3.58;1.30;;;18.50;99.90;;;;;;5015583;28;20276;-82
2022/05/02 08:53:39;;;;;;;8.02;2.00;;;18.50;99.90;;;;;;5023279;28;20226;-87
2022/05/02 08:56:50;;;;;;;2.85;1.10;;;18.50;99.90;;;;;;5014717;28;20202;-85
2022/05/02 08:59:55;;;;;;;5.55;1.70;;;18.50;99.90;;;;;;5023186;28;20642;-85
2022/05/02 09:02:54;;;;;;;5.60;2.10;;;18.50;99.90;;;;;;5022565;28;20205;-85
2022/05/02 09:06:02;;;;;;;6.47;1.85;;;18.40;99.90;;;;;;5014752;28;20330;-85
2022/05/02 09:09:15;;;;;;;6.35;1.90;;;18.40;99.90;;;;;;5005151;28;20194;-84
2022/05/02 09:12:29;;;;;;;5.38;1.50;;;18.30;99.90;;;;;;5016180;28;20607;-85
2022/05/02 09:15:15;;;;;;;3.97;1.60;;;18.30;99.90;;;;;;5017487;28;20198;-85
2022/05/02 09:18:36;;;;;;;4.80;1.65;;;18.30;99.90;;;;;;5020913;28;20599;-84
2022/05/02 09:21:24;;;;;;;5.57;1.55;;;18.20;99.90;;;;;;5018757;28;20209;-78
2022/05/02 09:24:35;;;;;;;6.53;1.88;;;18.20;99.90;;;;;;5016897;28;20647;-77
2022/05/02 09:27:25;;;;;;;5.57;1.73;;;18.10;99.90;;;;;;5024528;28;20206;-83
2022/05/02 09:30:38;;;;;;;4.60;1.60;;;18.10;99.90;;;;;;5015365;28;20252;-85
2022/05/02 09:33:39;;;;;;;4.72;1.70;;;18.10;99.90;;;;;;5000747;28;20205;-82
2022/05/02 09:36:25;;;;;;;3.28;1.30;;;18.00;99.90;;;;;;5007774;28;20203;-84
2022/05/02 09:39:15;;;;;;;6.45;1.70;;;18.10;99.90;;;;;;5015014;28;20650;-80
2022/05/02 09:42:17;;;;;;;5.03;1.50;;;18.10;99.90;;;;;;5015672;28;20202;-84
2022/05/02 09:51:50;;;;;;;4.90;1.60;;;18.10;99.90;;;;;;5012185;28;20289;-80
2022/05/02 09:57:35;;;;;;;5.38;1.55;;;18.00;99.90;;;;;;5017767;28;20190;-83
2022/05/02 10:03:11;;;;;;;5.32;1.50;;;18.00;99.90;;;;;;5019802;28;20320;-84
2022/05/02 10:05:48;;;;;;;6.55;1.73;;;18.00;99.90;;;;;;5018833;28;20626;-81
2022/05/02 10:08:35;;;;;;;6.28;1.55;;;17.90;99.90;;;;;;5015841;28;20190;-83
2022/05/02 10:11:23;;;;;;;3.53;1.63;;;17.90;99.90;;;;;;5013948;28;20211;-85
2022/05/02 10:14:06;;;;;;;3.20;2.10;;;17.80;99.90;;;;;;5023877;28;20194;-86
2022/05/02 10:16:50;;;;;;;7.68;3.15;;;17.80;99.90;;;;;;5021879;28;20198;-79
2022/05/02 10:19:32;;;;;;;9.50;5.10;;;17.80;99.90;;;;;;5020247;28;20186;-82
2022/05/02 10:22:25;;;;;;;11.35;5.78;;;17.70;99.90;;;;;;5025533;28;20624;-80
2022/05/02 10:25:04;;;;;;;13.07;5.78;;;17.70;99.90;;;;;;5024180;28;20222;-76
2022/05/02 10:27:42;;;;;;;9.82;5.50;;;17.70;99.90;;;;;;5015992;28;20289;-76
2022/05/02 10:30:14;;;;;;;8.68;4.32;;;17.70;99.90;;;;;;5013078;28;20253;-84
2022/05/02 10:32:56;;;;;;;8.10;4.47;;;17.60;99.90;;;;;;5023098;28;20218;-84
2022/05/02 10:35:29;;;;;;;6.93;4.60;;;17.60;99.90;;;;;;5019978;28;20236;-84
2022/05/02 10:38:02;;;;;;;6.47;3.75;;;17.60;99.90;;;;;;5021081;28;20226;-85
2022/05/02 10:40:40;;;;;;;7.53;3.70;;;17.60;99.90;;;;;;5023111;28;20199;-81
2022/05/02 10:43:12;;;;;;;6.20;2.78;;;17.60;99.90;;;;;;5025383;28;20743;-84
2022/05/02 10:45:43;;;;;;;6.28;2.60;;;17.50;99.90;;;;;;5028833;28;20237;-81
2022/05/02 10:48:25;;;;;;;5.10;2.58;;;17.50;99.90;;;;;;5023691;28;20245;-80
2022/05/02 10:51:06;;;;;;;7.63;2.40;;;17.50;99.90;;;;;;5016948;28;20682;-84
2022/05/02 10:54:14;;;;;;;5.28;2.30;;;17.50;99.90;;;;;;5026398;28;20776;-85
2022/05/02 10:56:49;;;;;;;9.13;2.50;;;17.50;99.90;;;;;;5004708;28;20220;-82
2022/05/02 10:59:26;;;;;;;4.72;2.15;;;17.50;99.90;;;;;;5029822;28;20685;-80
2022/05/02 11:02:30;;;;;;;5.55;2.00;;;17.50;99.90;;;;;;5016993;28;20599;-83
2022/05/02 11:05:11;;;;;;;6.78;1.95;;;17.50;99.90;;;;;;5014002;28;20733;-84
2022/05/02 11:07:56;;;;;;;3.40;1.70;;;17.50;99.90;;;;;;5014958;28;20199;-78
2022/05/02 11:10:31;;;;;;;4.63;2.13;;;17.40;99.90;;;;;;5011816;28;22203;-83
2022/05/02 11:13:20;;;;;;;5.05;1.65;;;17.50;99.90;;;;;;5015897;28;20601;-82
2022/05/02 11:16:11;;;;;;;2.95;1.40;;;17.40;99.90;;;;;;5006666;28;20191;-81
2022/05/02 11:22:13;;;;;;;8.40;1.73;;;17.40;99.90;;;;;;5012956;28;20559;-79
2022/05/02 11:24:54;;;;;;;4.45;1.70;;;17.30;99.90;;;;;;5013717;28;20203;-81
2022/05/02 11:27:37;;;;;;;7.28;2.00;;;17.30;99.90;;;;;;5006728;28;20203;-76
2022/05/02 11:30:10;;;;;;;7.68;1.95;;;17.30;99.90;;;;;;5011209;28;20203;-81
2022/05/02 11:32:53;;;;;;;5.07;2.25;;;17.30;99.90;;;;;;5010620;28;20215;-81
2022/05/02 11:35:30;;;;;;;7.32;2.22;;;17.20;99.90;;;;;;5014933;28;20195;-77
2022/05/02 11:38:12;;;;;;;5.75;2.30;;;17.20;99.90;;;;;;5015175;28;20201;-81
2022/05/02 11:40:48;;;;;;;5.70;3.05;;;17.20;99.90;;;;;;5010908;28;20195;-78
2022/05/02 11:43:23;;;;;;;5.20;2.33;;;17.10;99.90;;;;;;5010240;28;20278;-81
2022/05/02 11:46:06;;;;;;;6.03;2.40;;;17.10;99.90;;;;;;5013760;28;20285;-82
2022/05/02 11:49:16;;;;;;;6.93;2.42;;;17.10;99.90;;;;;;5019174;28;20265;-79
2022/05/02 11:51:47;;;;;;;8.77;2.50;;;17.10;99.90;;;;;;5020331;28;20317;-76
2022/05/02 11:54:39;;;;;;;5.35;2.42;;;17.10;99.90;;;;;;5018121;28;20191;-76
2022/05/02 11:57:20;;;;;;;4.28;2.15;;;17.00;99.90;;;;;;5007366;28;20205;-78
2022/05/02 12:00:00;;;;;;;6.03;2.30;;;17.00;99.90;;;;;;5014520;28;20198;-78
2022/05/02 12:02:44;;;;;;;7.13;2.30;;;17.00;99.90;;;;;;5014808;28;20191;-77
2022/05/02 12:05:24;;;;;;;7.15;2.50;;;17.00;99.90;;;;;;5014166;28;20206;-83
2022/05/02 12:07:56;;;;;;;4.80;2.25;;;17.00;99.90;;;;;;5013770;28;20206;-83
2022/05/02 12:10:45;;;;;;;6.35;2.10;;;17.00;99.90;;;;;;5016726;28;20202;-74
2022/05/02 12:13:16;;;;;;;5.55;2.40;;;17.00;99.90;;;;;;5007044;28;20226;-80
2022/05/02 12:16:00;;;;;;;8.35;2.30;;;17.00;99.90;;;;;;5014207;28;20195;-84
2022/05/02 12:18:45;;;;;;;5.88;2.13;;;17.00;99.90;;;;;;5012900;28;20670;-83
2022/05/02 12:21:23;;;;;;;6.53;2.40;;;17.00;99.90;;;;;;5006933;28;20195;-84
2022/05/02 12:23:55;;;;;;;6.43;2.33;;;17.00;99.90;;;;;;5016200;28;20199;-85
2022/05/02 12:26:28;;;;;;;5.40;2.30;;;17.00;99.90;;;;;;5014297;28;20631;-81
2022/05/02 12:29:04;;;;;;;4.75;2.13;;;17.00;99.90;;;;;;5013663;28;20260;-82
2022/05/02 12:31:36;;;;;;;7.03;2.55;;;17.00;99.90;;;;;;5013473;28;20214;-82
2022/05/02 12:34:08;;;;;;;5.18;2.13;;;17.00;99.90;;;;;;5011712;28;20262;-82
2022/05/02 12:36:52;;;;;;;6.15;2.08;;;17.00;99.90;;;;;;5009086;28;20642;-84
2022/05/02 12:39:26;;;;;;;4.53;1.48;;;17.10;99.90;;;;;;5008961;28;20192;-84
2022/05/02 12:42:17;;;;;;;5.70;1.70;;;17.00;99.90;;;;;;5013668;28;20194;-81
2022/05/02 12:44:52;;;;;;;4.45;1.73;;;17.10;99.90;;;;;;5009662;28;20198;-85
2022/05/02 12:47:25;;;;;;;3.13;1.25;;;17.10;99.90;;;;;;5006175;28;20186;-83
2022/05/02 12:50:06;;;;;;;4.15;1.75;;;17.10;99.90;;;;;;5014408;28;20320;-85
2022/05/02 12:52:45;;;;;;;4.35;1.52;;;17.10;99.90;;;;;;5013306;28;20234;-85
2022/05/02 12:55:16;;;;;;;3.33;1.25;;;17.10;99.90;;;;;;5014332;28;20198;-81
2022/05/02 13:00:41;;;;;;;6.90;1.88;;;17.20;99.90;;;;;;5013561;28;20659;-85
2022/05/02 13:03:22;;;;;;;5.60;1.65;;;17.10;99.90;;;;;;5013482;28;20311;-84
2022/05/02 13:05:59;;;;;;;4.22;1.70;;;17.10;99.90;;;;;;5013469;28;20198;-83
2022/05/02 13:08:35;;;;;;;5.13;2.10;;;17.10;99.90;;;;;;5005957;28;20194;-84
2022/05/02 13:11:13;;;;;;;5.10;1.90;;;17.10;99.90;;;;;;5012909;28;20278;-83
2022/05/02 13:13:47;;;;;;;5.90;1.95;;;17.10;99.90;;;;;;5013292;28;20187;-75
2022/05/02 13:16:28;;;;;;;7.15;1.90;;;17.20;99.90;;;;;;5013159;28;20252;-84
2022/05/02 13:19:00;;;;;;;10.45;2.20;;;17.20;99.90;;;;;;5013413;28;20194;-84
2022/05/02 13:21:32;;;;;;;3.50;1.50;;;17.20;99.90;;;;;;5005542;28;20189;-84
2022/05/02 13:24:07;;;;;;;6.95;1.95;;;17.20;99.90;;;;;;5013138;28;20207;-84
2022/05/02 13:27:17;;;;;;;7.03;1.95;;;17.20;99.90;;;;;;5006377;28;20186;-84
2022/05/02 13:30:02;;;;;;;4.38;2.15;;;17.20;99.90;;;;;;5007429;28;20256;-84
2022/05/02 13:32:41;;;;;;;9.02;2.50;;;17.10;99.90;;;;;;5005374;28;20215;-84
2022/05/02 13:35:13;;;;;;;7.55;2.42;;;17.10;99.90;;;;;;5013048;28;20273;-85
2022/05/02 13:37:58;;;;;;;9.48;2.25;;;17.10;99.90;;;;;;5009925;28;20198;-82
2022/05/02 13:40:58;;;;;;;5.65;2.10;;;17.10;99.90;;;;;;5012709;28;20203;-83
2022/05/02 13:43:36;;;;;;;4.43;2.00;;;17.10;99.90;;;;;;5012388;28;20198;-82
2022/05/02 13:46:20;;;;;;;4.97;2.30;;;17.00;99.90;;;;;;5014920;28;20677;-79
2022/05/02 13:49:05;;;;;;;7.95;2.38;;;17.00;99.90;;;;;;5009458;28;20186;-83
2022/05/02 13:51:38;;;;;;;8.50;2.70;;;17.00;99.90;;;;;;5014654;28;20237;-84
2022/05/02 13:54:23;;;;;;;6.05;2.42;;;17.00;99.90;;;;;;5017161;28;20191;-82
2022/05/02 13:57:05;;;;;;;8.70;2.60;;;16.90;99.90;;;;;;5001995;28;20203;-82
2022/05/02 13:59:40;;;;;;;6.57;2.40;;;16.90;99.90;;;;;;4996723;28;20206;-80
2022/05/02 14:02:36;;;;;;;8.32;2.50;;;16.90;99.90;;;;;;5009441;28;20201;-82
2022/05/02 14:05:16;;;;;;;6.30;2.63;;;16.80;99.90;;;;;;5013788;28;20658;-80
2022/05/02 14:07:47;;;;;;;5.47;2.20;;;16.80;99.90;;;;;;5004334;28;20205;-83
2022/05/02 14:10:18;;;;;;;8.48;2.90;;;16.80;99.90;;;;;;5012676;28;20203;-80
2022/05/02 14:12:48;;;;;;;6.10;2.53;;;16.80;99.90;;;;;;5010171;28;20233;-83
2022/05/02 14:15:19;;;;;;;7.75;2.53;;;16.80;99.90;;;;;;5012222;28;20334;-81
2022/05/02 14:17:55;;;;;;;8.65;2.65;;;16.80;99.90;;;;;;5004741;28;20199;-83